Saint Albans Bay, Vermont
Current Conditions -  °F | °C
As of 9:35 AM on Wednesday 22 Oct 2014 (Local Time) from KFSO Reporting Station
Drizzle Drizzle  
Wind Chill: 38°   Ceiling: 600
Heat Index: 44°   Visibility: 5mi
Dew Point: 43°   Wind: 10mph
Humidity: 97%   Direction: 360°N
Pressure: 30.22"   Gusts: NA
Location:  44.81°N, 73.14°W
Report Text: KFSO 221335Z AUTO 36009KT 5SM DZ BKN006 OVC060 07/06 A3022 RMK AO2 T00660061
Loading
Personal Weather Stations






























Interactive Weather Map
Tropical Storm Tracking
New forecast layout! Learn more

10-Day Weather Forecast

Advertisements
Track Severe Weather on mobile